Time;durP1;ratioP1;P1;durP2;ratioP2;P2;SDS_P1;SDS_P2;PMS_P1;PMS_P2;Temp;Humidity;BMP_temperature;BMP_pressure;BME280_temperature;BME280_humidity;BME280_pressure;Samples;Min_cycle;Max_cycle;Signal;HPM_P1;HPM_P2
2021/12/23 00:03:01;;;;;;;15.20;6.72;;;1.30;56.70;;;-0.56;63.86;101837.50;8279653;28;20044;-78
2021/12/23 00:07:22;;;;;;;13.20;7.97;;;1.40;56.70;;;-0.75;63.94;101799.72;8317549;28;20116;-79
2021/12/23 00:11:44;;;;;;;11.77;7.20;;;1.40;56.70;;;-0.58;63.63;101825.50;8298304;28;20116;-81
2021/12/23 00:16:17;;;;;;;12.00;7.13;;;1.40;56.70;;;-0.73;63.60;101798.88;8295977;28;20474;-81
2021/12/23 00:25:00;;;;;;;10.48;7.03;;;1.40;56.60;;;-0.62;63.52;101810.91;8313523;28;20128;-81
2021/12/23 00:29:22;;;;;;;11.68;7.45;;;1.40;56.60;;;-0.63;63.69;101804.94;8273356;28;20121;-81
2021/12/23 00:33:44;;;;;;;13.40;7.22;;;1.40;56.60;;;-0.62;63.77;101804.09;8286544;28;20120;-81
2021/12/23 00:38:15;;;;;;;12.73;7.65;;;1.40;56.70;;;-0.75;63.66;101774.06;8300262;28;20604;-81
2021/12/23 00:42:37;;;;;;;11.98;6.93;;;1.40;56.70;;;-0.66;64.05;101789.53;8304043;28;20120;-81
2021/12/23 00:46:59;;;;;;;10.80;6.35;;;1.40;56.70;;;-0.67;63.78;101782.69;8300143;28;20124;-81
2021/12/23 00:51:21;;;;;;;13.82;6.78;;;1.40;56.70;;;-0.72;63.80;101771.53;8279171;28;20132;-81
2021/12/23 00:55:45;;;;;;;12.40;7.75;;;1.30;56.60;;;-0.81;63.57;101764.63;8307947;28;20509;-81
2021/12/23 01:00:15;;;;;;;10.82;7.07;;;1.40;56.60;;;-0.69;64.01;101781.81;8301832;28;20048;-81
2021/12/23 01:04:37;;;;;;;14.18;8.02;;;1.40;56.60;;;-0.60;63.53;101791.28;8290838;28;20550;-81
2021/12/23 01:08:59;;;;;;;13.30;7.97;;;1.30;56.60;;;-0.73;63.82;101769.78;8293891;28;20039;-80
2021/12/23 01:13:26;;;;;;;16.83;10.25;;;1.30;56.60;;;-0.61;63.48;101787.00;8299725;28;20115;-81
2021/12/23 01:22:14;;;;;;;12.20;8.88;;;1.30;56.60;;;-0.78;63.73;101750.97;8312729;28;20128;-81
2021/12/23 01:26:38;;;;;;;14.02;8.65;;;1.30;56.60;;;-0.75;63.64;101764.66;8295350;28;20676;-81
2021/12/23 01:31:00;;;;;;;17.40;9.05;;;1.20;56.50;;;-0.72;63.36;101758.72;8314184;28;20124;-81
2021/12/23 01:35:25;;;;;;;13.13;7.95;;;1.30;56.60;;;-0.73;63.61;101762.97;8305272;28;20557;-81
2021/12/23 01:39:47;;;;;;;14.65;7.47;;;1.20;56.70;;;-0.79;63.75;101762.06;8293092;28;20567;-81
2021/12/23 01:44:08;;;;;;;12.50;8.10;;;1.30;56.70;;;-0.78;63.71;101754.41;8292908;28;20128;-81
2021/12/23 01:48:31;;;;;;;15.10;8.65;;;1.20;56.70;;;-0.76;63.93;101751.81;8304224;28;20117;-81
2021/12/23 01:52:54;;;;;;;12.27;7.72;;;1.20;56.70;;;-0.92;63.69;101720.94;8301078;28;20029;-81
2021/12/23 01:57:17;;;;;;;11.82;7.88;;;1.30;56.80;;;-0.89;63.85;101715.00;8311117;28;20124;-81
2021/12/23 02:01:41;;;;;;;10.80;7.00;;;1.20;56.70;;;-0.81;63.77;101733.84;8302677;28;20126;-81
2021/12/23 02:06:03;;;;;;;10.95;7.38;;;1.20;56.70;;;-0.77;63.90;101725.31;8297165;28;20128;-81
2021/12/23 02:10:27;;;;;;;13.50;8.48;;;1.40;56.80;;;-1.00;63.63;101678.13;8296636;28;20044;-81
2021/12/23 02:14:49;;;;;;;9.63;6.60;;;1.20;56.70;;;-0.83;63.60;101703.94;8305688;28;20120;-80
2021/12/23 02:19:20;;;;;;;11.70;7.43;;;1.20;56.60;;;-0.85;63.81;101692.78;8284228;28;20121;-81
2021/12/23 02:23:41;;;;;;;11.18;6.95;;;1.20;56.60;;;-0.85;63.82;101698.78;8310015;28;20048;-81
2021/12/23 02:28:07;;;;;;;10.50;7.40;;;1.20;57.10;;;-0.94;63.93;101666.25;8270762;28;20113;-81
2021/12/23 02:32:29;;;;;;;9.05;7.00;;;1.20;56.80;;;-0.78;63.86;101689.44;8277481;28;20121;-81
2021/12/23 02:36:56;;;;;;;11.93;7.00;;;1.00;56.70;;;-0.97;63.66;101653.41;8317818;28;20116;-81
2021/12/23 02:41:18;;;;;;;12.38;7.45;;;1.20;56.70;;;-0.80;64.07;101671.47;8298254;28;20497;-81
2021/12/23 02:45:42;;;;;;;12.93;7.53;;;1.20;56.70;;;-1.08;63.67;101619.16;8291568;28;20039;-81
2021/12/23 02:50:07;;;;;;;12.55;7.18;;;1.10;56.70;;;-0.88;63.93;101654.31;8301356;28;20124;-81
2021/12/23 02:54:29;;;;;;;12.68;7.45;;;1.20;56.70;;;-0.92;63.80;101646.59;8299708;28;20039;-81
2021/12/23 02:58:51;;;;;;;12.88;7.90;;;1.10;56.70;;;-0.85;63.72;101644.94;8290211;28;20128;-81
2021/12/23 03:03:12;;;;;;;12.13;7.70;;;1.00;56.60;;;-1.16;63.97;101580.66;8306941;28;20120;-81
2021/12/23 03:07:35;;;;;;;11.70;7.82;;;1.10;56.60;;;-1.02;63.62;101598.69;8306428;28;20638;-81
2021/12/23 03:11:57;;;;;;;15.20;8.23;;;1.10;56.60;;;-1.14;63.78;101573.81;8301705;28;20053;-81
2021/12/23 03:16:22;;;;;;;12.10;8.02;;;0.90;56.50;;;-1.08;63.77;101559.31;8304352;28;20124;-81
2021/12/23 03:20:45;;;;;;;12.77;7.82;;;1.10;56.50;;;-1.03;63.67;101579.00;8301421;28;20044;-79
2021/12/23 03:25:07;;;;;;;15.00;8.75;;;1.00;56.50;;;-1.16;63.41;101551.59;8308231;28;20423;-79
2021/12/23 03:29:29;;;;;;;13.85;8.40;;;1.00;56.60;;;-1.20;63.77;101539.63;8306505;28;20459;-79
2021/12/23 03:33:50;;;;;;;17.98;9.15;;;1.00;56.70;;;-1.10;63.69;101543.09;8319190;28;20120;-79
2021/12/23 03:38:13;;;;;;;15.00;9.43;;;0.90;56.70;;;-1.20;63.61;101514.00;8299309;28;20120;-79
2021/12/23 03:42:34;;;;;;;13.88;8.52;;;0.90;56.70;;;-1.14;63.36;101524.28;8278038;28;20617;-79
2021/12/23 03:46:56;;;;;;;14.38;8.07;;;0.90;56.70;;;-1.20;63.93;101507.16;8301376;28;20046;-79
2021/12/23 03:51:19;;;;;;;12.23;8.05;;;0.90;56.70;;;-1.28;64.09;101484.91;8301450;28;20447;-80
2021/12/23 03:55:41;;;;;;;14.90;7.97;;;0.90;56.70;;;-1.10;63.77;101505.50;8307901;28;20140;-79
2021/12/23 04:00:06;;;;;;;13.00;8.75;;;0.90;56.80;;;-1.10;63.72;101497.81;8302841;28;20038;-80
2021/12/23 04:04:28;;;;;;;10.85;7.40;;;0.90;56.80;;;-1.16;63.60;101472.16;8301178;28;20124;-81
2021/12/23 04:08:50;;;;;;;12.00;7.88;;;0.90;56.80;;;-1.05;63.75;101469.63;8302859;28;20112;-79
2021/12/23 04:13:11;;;;;;;13.88;9.00;;;0.90;56.80;;;-1.14;63.89;101467.88;8301198;28;20116;-79
2021/12/23 04:17:33;;;;;;;14.15;8.52;;;0.90;56.80;;;-1.14;63.56;101463.63;8280225;28;20124;-79
2021/12/23 04:21:55;;;;;;;14.45;9.02;;;0.90;56.80;;;-1.21;63.83;101445.66;8291772;28;20132;-80
2021/12/23 04:26:16;;;;;;;13.60;7.65;;;0.90;56.80;;;-1.24;63.96;101433.69;8309310;28;20577;-79
2021/12/23 04:30:38;;;;;;;19.40;9.15;;;0.80;56.70;;;-1.25;63.67;101431.97;8313748;28;20120;-79
2021/12/23 04:35:00;;;;;;;13.40;7.70;;;0.80;56.70;;;-1.23;63.91;101444.81;8284519;28;20116;-80
2021/12/23 04:39:22;;;;;;;14.15;7.88;;;0.80;56.70;;;-1.27;63.93;101431.13;8292765;28;20048;-82
2021/12/23 04:43:43;;;;;;;14.48;8.40;;;0.80;56.70;;;-1.31;63.67;101411.44;8292316;28;20112;-79
2021/12/23 04:48:05;;;;;;;14.80;8.48;;;0.70;56.70;;;-1.39;63.72;101403.72;8287051;28;20469;-79
2021/12/23 04:52:27;;;;;;;15.88;9.27;;;0.80;56.80;;;-1.27;63.79;101432.81;8296331;28;20112;-80
2021/12/23 04:56:49;;;;;;;17.05;9.05;;;0.90;56.90;;;-1.30;63.98;101409.75;8306107;28;20124;-79
2021/12/23 05:01:28;;;;;;;17.75;9.85;;;0.90;57.00;;;-1.21;64.12;101404.66;8302040;28;20045;-80
2021/12/23 05:05:53;;;;;;;17.13;9.68;;;0.80;57.00;;;-1.24;63.90;101387.59;8297003;28;20032;-80
2021/12/23 05:10:16;;;;;;;27.42;12.77;;;0.80;56.90;;;-1.35;64.02;101367.03;8316099;28;20043;-80
2021/12/23 05:14:38;;;;;;;20.50;10.40;;;0.80;56.80;;;-1.30;63.55;101374.72;8308373;28;20117;-80
2021/12/23 05:19:00;;;;;;;20.92;11.25;;;0.80;56.80;;;-1.24;64.13;101379.00;8309518;28;20426;-80
2021/12/23 05:23:21;;;;;;;22.23;10.18;;;0.80;56.90;;;-1.33;64.11;101365.31;8307778;28;20053;-81
2021/12/23 05:27:45;;;;;;;19.15;11.07;;;0.80;57.00;;;-1.26;63.99;101371.34;8309085;28;20095;-81
2021/12/23 05:32:07;;;;;;;17.55;9.85;;;0.80;57.10;;;-1.41;64.17;101323.44;8307208;28;20059;-81
2021/12/23 05:36:29;;;;;;;19.27;8.82;;;0.80;57.10;;;-1.13;64.02;101359.44;8299027;28;20513;-81
2021/12/23 05:40:51;;;;;;;21.55;9.68;;;0.80;57.00;;;-1.21;63.88;101335.50;8292338;28;20033;-79
2021/12/23 05:45:15;;;;;;;17.20;9.65;;;0.80;57.00;;;-1.17;64.08;101344.88;8318129;28;20043;-79
2021/12/23 05:49:36;;;;;;;15.95;8.60;;;1.10;57.10;;;-1.22;63.96;101328.63;8303257;28;20125;-79
2021/12/23 05:53:58;;;;;;;13.32;8.63;;;0.90;57.10;;;-1.20;63.79;101311.56;8293686;28;20041;-79
2021/12/23 05:58:20;;;;;;;16.30;9.05;;;0.70;57.10;;;-1.23;63.97;101301.31;8308948;28;20037;-79
2021/12/23 06:02:41;;;;;;;15.85;9.45;;;0.90;57.20;;;-1.02;64.07;101324.44;8299780;28;20521;-79
2021/12/23 06:07:04;;;;;;;19.33;9.82;;;0.90;57.30;;;-1.26;63.85;101273.97;8290754;28;20128;-79
2021/12/23 06:11:25;;;;;;;17.63;10.02;;;1.00;57.30;;;-0.99;64.09;101318.47;8289959;28;20041;-80
2021/12/23 06:15:47;;;;;;;12.88;8.15;;;1.00;57.70;;;-1.02;64.04;101298.81;8299498;28;20561;-79
2021/12/23 06:20:10;;;;;;;14.45;8.77;;;1.00;57.30;;;-0.95;63.99;101287.69;8276765;28;20047;-79
2021/12/23 06:24:32;;;;;;;18.45;9.30;;;1.10;57.30;;;-1.02;64.32;101270.63;8290261;28;20116;-80
2021/12/23 06:28:53;;;;;;;17.92;8.75;;;1.00;57.30;;;-1.03;64.02;101260.34;8285473;28;20120;-79
2021/12/23 06:33:15;;;;;;;15.32;9.40;;;1.00;57.30;;;-1.09;64.19;101244.97;8292377;28;20561;-79
2021/12/23 06:37:37;;;;;;;12.05;8.27;;;1.00;57.30;;;-0.88;64.44;101269.78;8304690;28;20490;-79
2021/12/23 06:42:00;;;;;;;16.90;8.95;;;1.10;57.40;;;-0.98;64.52;101249.25;8291475;28;20040;-79
2021/12/23 06:46:21;;;;;;;17.45;8.90;;;1.10;57.40;;;-0.94;64.45;101252.69;8318763;28;20116;-79
2021/12/23 06:50:45;;;;;;;16.02;9.30;;;1.20;57.50;;;-0.81;64.36;101259.53;8302594;28;20124;-80
2021/12/23 06:55:10;;;;;;;12.63;8.30;;;1.20;57.50;;;-0.94;63.96;101245.84;8274679;28;20121;-79
2021/12/23 06:59:32;;;;;;;17.83;9.95;;;1.20;57.50;;;-0.96;64.12;101231.31;8293613;28;20120;-79
2021/12/23 07:04:06;;;;;;;15.52;9.07;;;1.10;57.50;;;-0.72;64.20;101245.84;8305014;28;20550;-80
2021/12/23 07:08:30;;;;;;;15.75;9.57;;;1.50;57.60;;;-0.75;64.22;101248.41;8305189;28;20562;-79
2021/12/23 07:12:53;;;;;;;16.17;9.45;;;1.30;57.60;;;-0.75;64.12;101233.88;8312496;28;20129;-79
2021/12/23 07:17:15;;;;;;;19.33;9.60;;;1.30;57.60;;;-0.66;64.56;101240.69;8303039;28;20144;-86
2021/12/23 07:21:36;;;;;;;14.07;9.10;;;1.40;57.60;;;-0.64;64.58;101231.31;8314372;28;20037;-82
2021/12/23 07:25:58;;;;;;;14.75;9.38;;;1.40;57.60;;;-0.68;64.24;101209.91;8270257;28;20117;-81
2021/12/23 07:30:21;;;;;;;16.95;10.15;;;1.40;57.60;;;-0.79;64.37;101167.22;8294360;28;20231;-81
2021/12/23 07:34:43;;;;;;;13.88;8.70;;;1.50;57.70;;;-0.61;64.55;101187.69;8302061;28;20116;-80
2021/12/23 07:39:07;;;;;;;13.27;7.80;;;1.50;57.80;;;-0.48;64.33;101214.19;8293050;28;20593;-81
2021/12/23 07:43:43;;;;;;;19.38;9.85;;;1.50;57.70;;;-0.55;64.25;101187.69;8298560;28;20044;-81
2021/12/23 07:48:05;;;;;;;18.88;10.90;;;1.60;57.70;;;-0.38;64.33;101210.72;8285159;28;20120;-80
2021/12/23 07:52:28;;;;;;;18.33;9.43;;;1.60;57.80;;;-0.40;64.76;101196.22;8285540;28;20117;-81
2021/12/23 07:56:50;;;;;;;25.08;14.02;;;1.70;57.80;;;-0.55;64.53;101156.91;8292072;28;20120;-79
2021/12/23 08:01:11;;;;;;;18.23;10.73;;;1.60;57.90;;;-0.33;64.62;101174.78;8279982;28;20038;-82
2021/12/23 08:05:34;;;;;;;17.67;10.93;;;1.70;57.80;;;-0.30;64.56;101173.09;8286307;28;20120;-79
2021/12/23 08:09:56;;;;;;;17.80;9.65;;;1.70;57.90;;;-0.28;64.46;101170.50;8288708;28;20125;-79
2021/12/23 08:14:17;;;;;;;16.02;9.25;;;1.80;57.80;;;-0.37;64.56;101139.75;8307715;28;20132;-79
2021/12/23 08:18:40;;;;;;;16.27;10.27;;;1.80;57.90;;;-0.32;64.57;101144.03;8300113;28;20108;-79
2021/12/23 08:23:02;;;;;;;17.48;10.15;;;1.90;57.80;;;-0.17;64.47;101148.22;8272640;28;20034;-79
2021/12/23 08:27:29;;;;;;;16.23;9.02;;;1.90;57.80;;;-0.10;64.47;101137.06;8305585;28;20574;-79
2021/12/23 08:31:53;;;;;;;16.92;10.27;;;1.90;57.70;;;-0.05;64.57;101137.06;8307597;28;20039;-79
2021/12/23 08:36:16;;;;;;;21.00;11.15;;;2.00;57.80;;;-0.08;64.64;101126.78;8302270;28;20128;-79
2021/12/23 08:40:38;;;;;;;18.63;10.90;;;2.00;57.70;;;0.04;64.55;101116.47;8302330;28;20038;-79
2021/12/23 08:45:03;;;;;;;23.00;11.75;;;2.00;57.70;;;0.01;64.40;101106.22;8285595;28;20124;-79
2021/12/23 08:49:25;;;;;;;18.73;10.88;;;1.90;57.60;;;0.04;64.56;101084.81;8302603;28;20108;-79
2021/12/23 08:53:47;;;;;;;18.42;10.60;;;2.10;57.70;;;-0.01;64.38;101077.97;8298970;28;20034;-79
2021/12/23 08:58:08;;;;;;;19.10;11.00;;;2.10;57.60;;;0.19;64.40;101097.56;8272906;28;20709;-79
2021/12/23 09:02:30;;;;;;;20.05;11.10;;;2.10;57.60;;;0.08;64.86;101050.53;8311810;28;20041;-80
2021/12/23 09:06:52;;;;;;;19.60;10.27;;;2.20;57.60;;;0.18;64.33;101059.88;8304853;28;20124;-81
2021/12/23 09:11:14;;;;;;;18.92;9.40;;;2.50;57.60;;;0.08;64.57;101038.59;8310837;28;20124;-79
2021/12/23 09:15:35;;;;;;;15.63;9.00;;;2.10;57.50;;;0.34;64.40;101078.63;8286328;28;20120;-79
2021/12/23 09:19:58;;;;;;;17.00;9.50;;;2.40;57.60;;;0.41;64.25;101065.72;8303066;28;20569;-79
2021/12/23 09:24:20;;;;;;;15.90;9.27;;;2.30;57.50;;;0.46;64.44;101073.41;8296117;28;20197;-79
2021/12/23 09:28:58;;;;;;;16.58;9.57;;;2.40;57.50;;;0.40;64.44;101043.44;8289720;28;20117;-79
2021/12/23 09:33:20;;;;;;;17.17;11.02;;;2.50;57.50;;;0.55;64.64;101036.50;8295357;28;20116;-79
2021/12/23 09:37:42;;;;;;;15.60;9.80;;;2.50;57.50;;;0.50;64.42;101020.25;8272562;28;20036;-80
2021/12/23 09:42:04;;;;;;;19.42;11.15;;;2.50;57.50;;;0.49;64.57;100996.28;8281630;28;20038;-79
2021/12/23 09:46:26;;;;;;;17.60;9.70;;;2.60;57.50;;;0.61;64.40;101003.88;8288667;28;20121;-80
2021/12/23 09:50:50;;;;;;;19.98;11.30;;;2.60;57.50;;;0.57;64.49;100973.09;8290576;28;20148;-79
2021/12/23 09:55:15;;;;;;;18.35;9.82;;;2.60;57.50;;;0.64;64.25;100977.28;8328737;28;20128;-80
2021/12/23 09:59:37;;;;;;;15.38;9.63;;;2.70;57.50;;;0.69;64.54;100959.25;8311890;28;20128;-79
2021/12/23 10:03:59;;;;;;;21.30;11.63;;;2.70;57.50;;;0.67;64.56;100933.56;8321649;28;20043;-79
2021/12/23 10:08:21;;;;;;;16.90;10.25;;;2.70;57.40;;;0.66;64.45;100930.16;8323039;28;20120;-79
2021/12/23 10:26:48;;;;;;;23.75;12.13;;;2.70;57.30;;;0.61;64.33;100895.94;8304318;28;20121;-79
2021/12/23 10:41:26;;;;;;;15.38;9.00;;;3.00;57.30;;;1.08;64.55;100848.22;8293200;28;20063;-78
2021/12/23 10:45:57;;;;;;;;;;;3.00;57.20;;;0.96;64.38;100803.84;8310050;28;20572;-78
2021/12/23 10:50:41;;;;;;;23.48;13.23;;;3.00;57.00;;;1.06;64.53;100795.97;8314184;28;20000;-78
2021/12/23 10:59:31;;;;;;;19.38;11.20;;;3.10;57.20;;;1.12;64.48;100769.31;8309369;28;20041;-78
2021/12/23 11:04:04;;;;;;;16.52;9.55;;;3.10;57.10;;;1.05;64.19;100736.84;8298201;28;20049;-78
2021/12/23 11:08:48;;;;;;;16.33;9.50;;;3.20;57.00;;;1.25;64.14;100746.81;8302219;28;20032;-78
2021/12/23 11:35:32;;;;;;;26.05;13.77;;;3.30;56.60;;;1.40;64.10;100689.94;8293710;28;20121;-78
2021/12/23 11:37:13;;;;;;;19.65;11.07;;;3.40;56.90;;;1.39;64.27;100670.25;8293229;28;20102;-78
2021/12/23 11:41:38;;;;;;;19.60;11.60;;;3.40;56.90;;;1.38;64.21;100658.28;8286894;28;20120;-78
2021/12/23 11:46:01;;;;;;;26.40;12.57;;;3.50;57.00;;;1.65;64.25;100692.94;8288535;28;20461;-78
2021/12/23 11:50:31;;;;;;;21.67;12.65;;;3.50;57.00;;;1.62;64.34;100681.81;8301642;28;20116;-78
2021/12/23 11:54:53;;;;;;;18.92;10.68;;;3.50;56.80;;;1.72;64.25;100717.66;8313747;28;20116;-78
2021/12/23 11:59:16;;;;;;;17.98;9.65;;;3.60;56.90;;;1.75;64.11;100714.19;8296876;28;20468;-78
2021/12/23 12:04:02;;;;;;;26.23;14.23;;;3.60;57.00;;;1.72;63.91;100691.91;8286665;28;20037;-78
2021/12/23 12:08:24;;;;;;;19.60;10.98;;;3.70;56.70;;;1.79;64.09;100666.09;8291622;28;20136;-78
2021/12/23 12:13:07;;;;;;;14.45;8.93;;;3.70;56.80;;;1.74;64.11;100649.00;8294653;28;20486;-78
2021/12/23 12:17:33;;;;;;;14.02;9.55;;;3.80;56.90;;;1.93;64.53;100672.63;8307091;28;20109;-78
2021/12/23 12:21:54;;;;;;;;;;;3.70;56.80;;;1.86;64.03;100650.44;8308110;28;20042;-78
2021/12/23 12:26:25;;;;;;;12.98;8.23;;;3.90;56.90;;;1.91;64.22;100652.94;8299366;28;20003;-78
2021/12/23 12:30:52;;;;;;;14.80;8.77;;;3.90;56.70;;;1.98;64.20;100626.19;8285687;28;20040;-78
2021/12/23 12:35:19;;;;;;;16.08;8.90;;;3.80;56.80;;;2.09;64.27;100626.81;8296603;28;20038;-78
2021/12/23 12:39:47;;;;;;;15.90;9.32;;;4.00;56.70;;;2.06;63.98;100610.59;8290507;28;20029;-78
2021/12/23 12:44:19;;;;;;;20.10;11.27;;;4.20;56.80;;;2.22;64.03;100609.34;8304404;28;20060;-78
2021/12/23 12:48:56;;;;;;;15.85;8.75;;;4.00;56.40;;;2.26;64.10;100599.81;8318762;28;20116;-78
2021/12/23 12:53:19;;;;;;;13.45;8.40;;;4.10;56.70;;;2.29;64.27;100592.84;8314421;28;20521;-78
2021/12/23 12:57:53;;;;;;;17.90;8.88;;;4.00;56.60;;;2.31;64.09;100578.22;8296812;28;20132;-78
2021/12/23 13:02:28;;;;;;;15.55;9.82;;;4.20;56.70;;;2.29;64.28;100553.38;8314278;28;20060;-78
2021/12/23 13:06:53;;;;;;;14.77;8.27;;;4.10;56.50;;;2.38;63.83;100558.31;8288536;28;20586;-78
2021/12/23 13:11:35;;;;;;;14.18;8.73;;;4.30;56.60;;;2.16;64.03;100485.84;8289049;28;20051;-78
2021/12/23 13:16:25;;;;;;;13.82;9.00;;;4.30;56.60;;;2.31;64.04;100518.13;8290245;28;20049;-78
2021/12/23 13:20:57;;;;;;;13.35;8.50;;;4.20;56.50;;;2.46;63.69;100522.03;8299826;28;20112;-78
2021/12/23 13:25:18;;;;;;;16.52;8.82;;;4.30;56.50;;;2.41;63.90;100512.69;8314686;28;20116;-78
2021/12/23 13:29:41;;;;;;;13.77;8.00;;;4.60;56.70;;;2.46;63.79;100510.03;8293269;28;20117;-78
2021/12/23 13:34:12;;;;;;;12.45;6.88;;;4.40;56.60;;;2.45;63.89;100516.03;8304471;28;20121;-78
2021/12/23 13:38:40;;;;;;;14.73;8.10;;;4.50;56.60;;;2.49;63.91;100499.63;8286754;28;20032;-78
2021/12/23 13:43:01;;;;;;;11.32;7.55;;;4.40;56.50;;;2.44;63.88;100488.59;8291783;28;20034;-78
2021/12/23 13:47:26;;;;;;;17.73;8.52;;;4.40;56.60;;;2.58;63.84;100498.53;8276097;28;20113;-78
2021/12/23 13:51:51;;;;;;;15.05;6.68;;;4.50;56.40;;;2.38;64.04;100456.09;8292731;28;20125;-79
2021/12/23 13:56:15;;;;;;;;;;;4.50;56.60;;;2.60;64.11;100519.97;8284488;28;20124;-78
2021/12/23 14:00:36;;;;;;;9.68;5.82;;;4.50;56.60;;;2.54;63.98;100533.00;8315615;28;20007;-78
2021/12/23 14:05:03;;;;;;;11.25;7.38;;;4.50;56.60;;;2.53;63.81;100528.72;8300746;28;20129;-78
2021/12/23 14:09:56;;;;;;;12.68;7.22;;;4.50;56.60;;;2.58;63.60;100521.72;8297231;28;20033;-78
2021/12/23 14:14:19;;;;;;;13.30;8.02;;;4.40;56.50;;;2.62;63.70;100510.47;8293079;28;20573;-78
2021/12/23 14:19:00;;;;;;;10.98;6.97;;;4.60;56.70;;;2.65;63.70;100526.69;8314886;28;20121;-80
2021/12/23 14:23:50;;;;;;;11.18;6.82;;;4.60;56.70;;;2.60;64.00;100496.78;8281801;28;20510;-80
2021/12/23 14:28:17;;;;;;;14.73;8.60;;;4.60;56.70;;;2.51;63.66;100478.94;8296458;28;20033;-79
2021/12/23 14:32:39;;;;;;;9.02;6.40;;;4.60;56.70;;;2.66;63.99;100471.66;8300166;28;20205;-79
2021/12/23 14:37:03;;;;;;;11.23;6.45;;;4.60;56.80;;;2.53;63.75;100439.38;8303925;28;20148;-82
2021/12/23 14:41:44;;;;;;;10.00;6.77;;;4.60;56.80;;;2.59;64.18;100444.38;8286076;28;20398;-80
2021/12/23 14:46:05;;;;;;;10.70;6.28;;;4.60;56.80;;;2.65;63.64;100451.94;8312578;28;20401;-80
2021/12/23 14:50:37;;;;;;;10.13;6.22;;;4.50;56.80;;;2.67;63.68;100444.16;8274429;28;20048;-79
2021/12/23 14:55:07;;;;;;;11.43;6.60;;;4.60;56.80;;;2.58;63.92;100423.78;8290483;28;20453;-79
2021/12/23 14:59:29;;;;;;;9.52;6.53;;;4.60;56.70;;;2.61;63.45;100418.53;8285138;28;20406;-79
2021/12/23 15:04:10;;;;;;;11.55;6.78;;;4.60;56.80;;;2.70;63.89;100417.44;8266563;28;20108;-82
2021/12/23 15:08:32;;;;;;;12.23;7.03;;;4.60;56.70;;;2.64;63.58;100403.84;8288774;28;20033;-81
2021/12/23 15:12:54;;;;;;;11.70;6.75;;;4.50;56.70;;;2.66;63.66;100409.78;8297280;28;20049;-80
2021/12/23 15:17:24;;;;;;;13.70;6.18;;;4.60;56.70;;;2.60;63.81;100385.94;8294484;28;20424;-80
2021/12/23 15:21:50;;;;;;;11.30;7.03;;;4.60;56.70;;;2.69;63.89;100387.41;8302973;28;20073;-80
2021/12/23 15:26:26;;;;;;;;;;;4.60;56.70;;;2.63;63.48;100375.53;8298262;28;20406;-80
2021/12/23 15:30:48;;;;;;;;;;;4.60;56.80;;;2.72;63.88;100382.16;8305415;28;20484;-80
2021/12/23 15:35:18;;;;;;;8.73;5.95;;;4.70;56.90;;;2.59;63.88;100355.88;8313403;28;20012;-80
2021/12/23 15:39:42;;;;;;;10.70;7.30;;;4.60;56.70;;;2.59;64.00;100341.28;8301328;28;20025;-80
2021/12/23 15:44:04;;;;;;;14.43;7.35;;;4.60;56.70;;;2.66;63.91;100340.19;8289761;28;20417;-80
2021/12/23 15:48:26;;;;;;;13.95;8.02;;;4.60;57.10;;;2.63;64.12;100322.25;8321728;28;20033;-81
2021/12/23 15:52:47;;;;;;;11.20;7.30;;;4.60;56.80;;;2.69;63.72;100325.53;8309606;28;20044;-80
2021/12/23 15:57:11;;;;;;;10.90;6.72;;;4.60;56.80;;;2.70;63.67;100307.47;8302248;28;20128;-80
2021/12/23 16:01:32;;;;;;;12.68;7.15;;;4.50;56.70;;;2.67;63.64;100294.63;8299716;28;20041;-80
2021/12/23 16:10:34;;;;;;;14.10;7.88;;;4.70;56.80;;;2.71;63.84;100292.84;8302904;28;20120;-80
2021/12/23 16:14:58;;;;;;;11.82;7.28;;;4.60;56.70;;;2.72;63.70;100284.19;8288675;28;20128;-80
2021/12/23 16:19:20;;;;;;;11.75;7.45;;;4.70;56.90;;;2.61;63.89;100269.06;8306163;28;20057;-80
2021/12/23 16:23:42;;;;;;;11.10;7.53;;;4.60;56.80;;;2.43;63.76;100235.22;8308506;28;20313;-80
2021/12/23 16:28:04;;;;;;;10.70;7.43;;;4.50;56.80;;;2.75;63.62;100279.78;8316081;28;20402;-81
2021/12/23 16:32:26;;;;;;;15.30;7.85;;;4.70;56.90;;;2.78;63.49;100276.28;8293032;28;20475;-81
2021/12/23 16:36:48;;;;;;;12.75;8.15;;;4.50;56.70;;;2.69;63.49;100258.53;8308401;28;20513;-81
2021/12/23 16:41:12;;;;;;;13.57;7.80;;;4.60;57.10;;;2.84;63.65;100281.25;8307114;28;20067;-81
2021/12/23 16:45:38;;;;;;;10.88;7.15;;;4.70;56.80;;;2.84;63.57;100265.78;8317842;28;20120;-81
2021/12/23 16:50:00;;;;;;;13.00;6.85;;;4.50;56.70;;;2.83;63.82;100257.19;8300877;28;20041;-81
2021/12/23 16:54:22;;;;;;;12.55;6.85;;;4.60;56.80;;;2.66;63.64;100201.00;8312783;28;20042;-81
2021/12/23 16:58:46;;;;;;;13.05;8.27;;;4.70;56.80;;;2.63;63.62;100197.69;8298257;28;20037;-81
2021/12/23 17:03:08;;;;;;;12.73;8.57;;;4.70;56.80;;;2.78;63.81;100201.50;8296905;28;20041;-81
2021/12/23 17:07:30;;;;;;;11.93;8.02;;;4.80;56.80;;;2.84;63.55;100212.47;8301337;28;20022;-80
2021/12/23 17:11:52;;;;;;;13.43;8.45;;;4.80;56.90;;;2.87;63.61;100202.06;8300564;28;20037;-80
2021/12/23 17:16:13;;;;;;;13.18;8.52;;;4.70;56.90;;;2.84;63.71;100206.50;8300805;28;20128;-81
2021/12/23 17:25:04;;;;;;;13.90;9.40;;;4.70;57.30;;;2.79;63.61;100187.75;8318150;28;20045;-81
2021/12/23 17:29:27;;;;;;;13.43;8.70;;;4.70;57.40;;;2.78;63.81;100186.03;8294588;28;20116;-82
2021/12/23 17:33:50;;;;;;;12.88;8.70;;;4.70;57.60;;;2.72;63.74;100166.44;8305856;28;20047;-82
2021/12/23 17:38:17;;;;;;;12.52;8.63;;;4.70;57.80;;;2.83;63.67;100176.41;8318380;28;20042;-82
2021/12/23 17:42:38;;;;;;;12.30;8.38;;;4.60;57.80;;;2.61;63.93;100130.72;8311971;28;20026;-82
2021/12/23 17:47:01;;;;;;;11.90;8.25;;;4.60;57.90;;;2.77;63.71;100132.81;8293999;28;20504;-83
2021/12/23 17:51:23;;;;;;;13.70;8.55;;;4.60;58.00;;;2.70;63.79;100103.81;8306044;28;20048;-83
2021/12/23 17:55:45;;;;;;;12.32;8.68;;;4.70;58.10;;;2.81;63.86;100121.50;8315155;28;20397;-83
2021/12/23 18:00:08;;;;;;;13.40;8.55;;;4.50;58.00;;;2.72;63.81;100083.13;8302462;28;20124;-83
2021/12/23 18:04:34;;;;;;;13.48;8.25;;;4.70;58.10;;;2.90;63.76;100104.88;8294351;28;20502;-84
2021/12/23 18:08:56;;;;;;;13.80;9.48;;;4.70;58.10;;;2.89;64.12;100096.31;8285709;28;20127;-84
2021/12/23 18:13:20;;;;;;;13.27;8.73;;;4.70;58.20;;;2.87;63.67;100082.63;8291224;28;20132;-84
2021/12/23 18:17:41;;;;;;;13.57;8.57;;;4.70;58.20;;;2.83;64.01;100071.53;8295703;28;20411;-84
2021/12/23 18:22:04;;;;;;;12.75;8.55;;;4.70;58.20;;;2.88;64.03;100064.50;8296496;28;20278;-84
2021/12/23 18:26:26;;;;;;;13.48;8.25;;;4.60;58.20;;;2.80;64.04;100045.88;8298102;28;20105;-83
2021/12/23 18:30:48;;;;;;;14.60;9.15;;;4.70;58.30;;;2.81;64.19;100028.69;8296786;28;20112;-83
2021/12/23 18:35:16;;;;;;;14.30;9.38;;;4.70;58.30;;;2.90;63.85;100017.22;8302197;28;20320;-84
2021/12/23 18:39:38;;;;;;;12.32;8.40;;;4.60;58.30;;;3.02;64.25;100037.41;8283923;28;20112;-83
2021/12/23 18:44:01;;;;;;;12.98;9.15;;;4.80;58.40;;;3.00;64.13;100031.47;8289287;28;20044;-83
2021/12/23 18:48:23;;;;;;;13.45;9.43;;;4.80;58.40;;;2.92;64.14;100008.53;8299825;28;20112;-83
2021/12/23 18:52:45;;;;;;;11.80;8.35;;;4.80;58.40;;;3.01;63.79;100002.19;8279339;28;20113;-83
2021/12/23 18:57:07;;;;;;;13.82;9.43;;;4.90;58.40;;;3.07;64.11;100001.97;8296599;28;20047;-84
2021/12/23 19:01:31;;;;;;;13.52;9.23;;;4.90;58.40;;;2.92;64.30;99987.91;8294743;28;20112;-83
2021/12/23 19:06:10;;;;;;;16.33;10.23;;;4.90;58.40;;;3.04;64.30;99991.75;8290237;28;20056;-83
2021/12/23 19:10:32;;;;;;;16.63;10.43;;;4.90;58.40;;;3.03;64.09;99996.09;8285083;28;20026;-83
2021/12/23 19:14:53;;;;;;;16.17;10.05;;;4.80;58.40;;;3.02;63.87;99978.91;8297232;28;20121;-83
2021/12/23 19:19:16;;;;;;;13.27;8.63;;;4.90;58.50;;;3.02;64.23;99968.59;8299722;28;20553;-83
2021/12/23 19:23:38;;;;;;;14.75;9.45;;;4.90;58.50;;;3.07;64.36;99964.13;8303991;28;20502;-84
2021/12/23 19:28:03;;;;;;;18.08;11.23;;;4.90;58.50;;;2.98;64.43;99941.25;8285590;28;20116;-83
2021/12/23 19:32:25;;;;;;;16.83;10.57;;;4.90;58.60;;;3.09;64.11;99953.75;8300905;28;20036;-83
2021/12/23 19:36:47;;;;;;;15.20;9.40;;;4.90;58.60;;;3.07;64.03;99953.78;8297257;28;20048;-83